createdAt,value
2019-04-01T00:00:32.717Z,61.02
2019-04-01T00:02:36.459Z,61.17
2019-04-01T00:04:41.309Z,61.29
2019-04-01T00:06:45.099Z,61.37
2019-04-01T00:08:51.979Z,61.41
2019-04-01T00:10:56.783Z,61.50
2019-04-01T00:13:00.598Z,61.55
2019-04-01T00:15:04.582Z,61.74
2019-04-01T00:17:08.418Z,61.91
2019-04-01T00:19:14.260Z,61.92
2019-04-01T00:21:19.091Z,62.00
2019-04-01T00:23:22.886Z,62.09
2019-04-01T00:25:26.699Z,62.27
2019-04-01T00:27:30.496Z,62.45
2019-04-01T00:29:34.225Z,62.54
2019-04-01T00:31:38.000Z,62.67
2019-04-01T00:33:41.810Z,62.79
2019-04-01T00:35:45.602Z,62.94
2019-04-01T00:37:51.361Z,63.08
2019-04-01T00:39:57.117Z,63.10
2019-04-01T00:42:10.039Z,63.23
2019-04-01T00:44:14.867Z,63.23
2019-04-01T00:46:18.646Z,63.34
2019-04-01T00:48:23.484Z,63.50
2019-04-01T00:50:27.375Z,63.59
2019-04-01T00:52:31.253Z,63.77
2019-04-01T00:54:38.108Z,63.82
2019-04-01T00:56:41.860Z,63.84
2019-04-01T00:58:45.661Z,63.90
2019-04-01T01:00:50.490Z,64.03
2019-04-01T01:02:56.267Z,64.17
2019-04-01T01:05:00.096Z,64.27
2019-04-01T01:07:04.140Z,64.44
2019-04-01T01:09:09.052Z,64.53
2019-04-01T01:11:12.970Z,64.67
2019-04-01T01:13:19.869Z,64.77
2019-04-01T01:15:23.678Z,64.84
2019-04-01T01:17:27.470Z,64.94
2019-04-01T01:19:31.477Z,65.13
2019-04-01T01:21:36.676Z,65.17
2019-04-01T01:23:40.520Z,65.27
2019-04-01T01:25:52.109Z,65.23
2019-04-01T01:28:01.134Z,65.38
2019-04-01T01:30:08.783Z,65.53
2019-04-01T01:32:12.626Z,65.63
2019-04-01T01:34:22.579Z,65.60
2019-04-01T01:36:26.385Z,65.72
2019-04-01T01:38:32.222Z,65.88
2019-04-01T01:40:36.084Z,66.08
2019-04-01T01:42:40.859Z,66.23
2019-04-01T01:44:46.882Z,66.31
2019-04-01T01:46:51.634Z,66.39
2019-04-01T01:48:55.506Z,66.50
2019-04-01T01:50:59.362Z,66.67
2019-04-01T01:53:03.146Z,66.75
2019-04-01T01:55:07.030Z,66.80
2019-04-01T01:57:16.703Z,67.00
2019-04-01T01:59:21.595Z,67.01
2019-04-01T02:01:27.564Z,66.96
2019-04-01T02:03:31.366Z,66.99
2019-04-01T02:05:42.135Z,67.04
2019-04-01T02:07:49.022Z,67.16
2019-04-01T02:09:56.923Z,67.28
2019-04-01T02:12:02.144Z,67.52
2019-04-01T02:14:06.030Z,67.47
2019-04-01T02:16:09.867Z,67.58
2019-04-01T02:18:13.946Z,68.01
2019-04-01T02:20:17.795Z,68.14
2019-04-01T02:22:21.583Z,68.26
2019-04-01T02:24:27.332Z,68.34
2019-04-01T02:26:32.164Z,68.48
2019-04-01T02:28:36.993Z,68.50
2019-04-01T02:30:44.005Z,68.49
2019-04-01T02:32:47.765Z,68.50
2019-04-01T02:34:52.604Z,68.56
2019-04-01T02:36:57.414Z,68.66
2019-04-01T02:39:04.773Z,68.65
2019-04-01T02:41:11.691Z,68.66
2019-04-01T02:43:15.483Z,68.67
2019-04-01T02:45:21.330Z,68.59
2019-04-01T02:47:25.144Z,68.66
2019-04-01T02:49:29.758Z,68.76
2019-04-01T02:51:33.589Z,68.94
2019-04-01T02:53:37.383Z,69.04
2019-04-01T02:55:45.368Z,69.23
2019-04-01T02:57:49.162Z,69.40
2019-04-01T02:59:52.968Z,69.51
2019-04-01T03:01:56.779Z,69.74
2019-04-01T03:04:02.555Z,69.84
2019-04-01T03:06:06.339Z,69.92
2019-04-01T03:08:11.172Z,69.96
2019-04-01T03:10:16.065Z,70.15
2019-04-01T03:12:19.904Z,70.30
2019-04-01T03:14:25.654Z,70.41
2019-04-01T03:16:29.435Z,70.58
2019-04-01T03:18:33.272Z,70.68
2019-04-01T03:20:38.062Z,70.70
2019-04-01T03:22:41.935Z,70.75
2019-04-01T03:24:45.777Z,70.75
2019-04-01T03:26:50.618Z,70.74
2019-04-01T03:28:55.454Z,70.85
2019-04-01T03:31:01.265Z,70.97
2019-04-01T03:33:11.017Z,71.03
2019-04-01T03:35:15.288Z,71.03
2019-04-01T03:37:19.044Z,71.08
2019-04-01T03:39:22.913Z,71.23
2019-04-01T03:41:27.676Z,71.30
2019-04-01T03:43:32.501Z,71.42
2019-04-01T03:45:38.253Z,71.46
2019-04-01T03:47:42.040Z,71.50
2019-04-01T03:49:45.864Z,71.47
2019-04-01T03:51:49.656Z,71.54
2019-04-01T03:53:53.467Z,71.61
2019-04-01T03:56:00.424Z,71.67
2019-04-01T03:58:04.306Z,71.69
2019-04-01T04:00:08.470Z,71.84
2019-04-01T04:02:12.399Z,71.90
2019-04-01T04:04:16.214Z,71.91
2019-04-01T04:06:20.056Z,71.93
2019-04-01T04:08:23.858Z,72.00
2019-04-01T04:10:27.674Z,72.12
2019-04-01T04:12:31.486Z,72.25
2019-04-01T04:14:37.207Z,72.50
2019-04-01T04:16:41.028Z,72.67
2019-04-01T04:18:44.827Z,72.73
2019-04-01T04:20:49.739Z,72.91
2019-04-01T04:22:53.551Z,72.98
2019-04-01T04:24:59.298Z,73.06
2019-04-01T04:27:03.122Z,73.07
2019-04-01T04:29:12.957Z,73.22
2019-04-01T04:31:17.802Z,73.30
2019-04-01T04:33:21.549Z,73.27
2019-04-01T04:35:27.328Z,73.37
2019-04-01T04:37:31.144Z,73.42
2019-04-01T04:39:34.942Z,73.55
2019-04-01T04:41:38.741Z,73.66
2019-04-01T04:43:42.539Z,73.64
2019-04-01T04:45:47.363Z,73.71
2019-04-01T04:47:51.183Z,73.76
2019-04-01T04:49:54.969Z,73.71
2019-04-01T04:52:00.726Z,73.76
2019-04-01T04:54:04.704Z,73.76
2019-04-01T04:56:15.290Z,73.84
2019-04-01T04:58:21.034Z,73.92
2019-04-01T05:00:24.839Z,73.98
2019-04-01T05:02:28.648Z,74.10
2019-04-01T05:04:32.436Z,74.12
2019-04-01T05:06:36.330Z,74.14
2019-04-01T05:08:41.077Z,74.23
2019-04-01T05:10:44.886Z,74.31
2019-04-01T05:12:48.694Z,74.41
2019-04-01T05:14:53.512Z,74.35
2019-04-01T05:16:59.263Z,74.40
2019-04-01T05:19:04.154Z,74.45
2019-04-01T05:21:08.214Z,74.44
2019-04-01T05:23:12.380Z,74.32
2019-04-01T05:25:18.149Z,74.32
2019-04-01T05:27:25.656Z,74.26
2019-04-01T05:29:31.282Z,74.26
2019-04-01T05:31:35.769Z,74.28
2019-04-01T05:33:54.799Z,74.37
2019-04-01T05:35:48.817Z,74.28
2019-04-01T05:37:52.810Z,74.20
2019-04-01T05:39:57.881Z,74.13
2019-04-01T05:42:03.145Z,74.07
2019-04-01T05:44:07.189Z,74.14
2019-04-01T05:46:13.108Z,74.20
2019-04-01T05:48:17.807Z,74.35
2019-04-01T05:50:21.659Z,74.41
2019-04-01T05:52:26.434Z,74.37
2019-04-01T05:54:31.322Z,74.31
2019-04-01T05:56:35.198Z,74.24
2019-04-01T05:58:39.025Z,74.10
2019-04-01T06:00:56.169Z,74.02
2019-04-01T06:02:59.973Z,73.88
2019-04-01T06:05:06.527Z,73.83
2019-04-01T06:07:10.466Z,73.71
2019-04-01T06:09:14.350Z,73.61
2019-04-01T06:11:18.246Z,73.41
2019-04-01T06:13:22.253Z,73.14
2019-04-01T06:15:27.172Z,72.85
2019-04-01T06:17:31.186Z,72.63
2019-04-01T06:19:35.364Z,72.59
2019-04-01T06:21:39.203Z,72.30
2019-04-01T06:23:43.050Z,72.00
2019-04-01T06:25:46.850Z,71.75
2019-04-01T06:27:51.861Z,71.64
2019-04-01T06:29:59.159Z,71.30
2019-04-01T06:32:01.862Z,71.17
2019-04-01T06:34:05.923Z,70.82
2019-04-01T06:36:09.819Z,70.44
2019-04-01T06:38:13.898Z,70.09
2019-04-01T06:40:17.992Z,69.63
2019-04-01T06:42:22.795Z,69.10
2019-04-01T06:44:26.614Z,68.67
2019-04-01T06:46:30.465Z,68.24
2019-04-01T06:48:34.311Z,67.73
2019-04-01T06:50:39.465Z,67.25
2019-04-01T06:52:43.323Z,66.82
2019-04-01T06:54:49.172Z,66.31
2019-04-01T06:56:53.070Z,65.77
2019-04-01T06:58:56.989Z,65.12
2019-04-01T07:01:02.035Z,64.13
2019-04-01T07:03:05.917Z,63.24
2019-04-01T07:05:12.550Z,62.41
2019-04-01T07:07:19.091Z,61.47
2019-04-01T07:09:21.473Z,60.23
2019-04-01T07:11:25.386Z,59.67
2019-04-01T07:13:29.223Z,59.08
2019-04-01T07:15:34.045Z,57.19
2019-04-01T07:17:37.957Z,53.39
2019-04-01T07:19:41.861Z,47.83
2019-04-01T07:21:45.770Z,44.08
2019-04-01T07:23:49.692Z,40.53
2019-04-01T07:25:53.585Z,37.93
2019-04-01T07:27:57.488Z,36.19
2019-04-01T07:30:02.380Z,34.42
2019-04-01T07:32:06.223Z,32.30
2019-04-01T07:34:10.107Z,32.30
2019-04-01T07:36:13.934Z,31.20
2019-04-01T07:38:19.806Z,29.56
2019-04-01T07:40:23.614Z,29.09
2019-04-01T07:42:27.614Z,28.33
2019-04-01T07:44:32.533Z,27.24
2019-04-01T07:46:37.283Z,26.60
2019-04-01T07:48:41.239Z,25.74
2019-04-01T07:50:45.260Z,24.81
2019-04-01T07:52:50.175Z,24.03
2019-04-01T07:54:55.017Z,23.36
2019-04-01T07:56:58.936Z,23.08
2019-04-01T07:59:02.837Z,22.57
2019-04-01T08:01:06.734Z,22.26
2019-04-01T08:03:10.647Z,21.44
2019-04-01T08:05:16.763Z,21.00
2019-04-01T08:07:20.579Z,20.46
2019-04-01T08:09:25.426Z,20.14
2019-04-01T08:11:29.351Z,19.99
2019-04-01T08:13:33.180Z,19.62
2019-04-01T08:15:37.018Z,19.23
2019-04-01T08:17:40.760Z,18.69
2019-04-01T08:19:44.571Z,18.55
2019-04-01T08:21:52.127Z,18.10
2019-04-01T08:23:54.175Z,17.81
2019-04-01T08:25:57.998Z,17.76
2019-04-01T08:28:01.911Z,16.96
2019-04-01T08:30:08.690Z,17.13
2019-04-01T08:32:14.147Z,16.72
2019-04-01T08:34:18.230Z,16.13
2019-04-01T08:36:23.136Z,16.32
2019-04-01T08:38:28.281Z,16.21
2019-04-01T08:40:33.020Z,15.88
2019-04-01T08:42:36.982Z,15.72
2019-04-01T08:44:40.994Z,15.37
2019-04-01T08:46:44.918Z,14.98
2019-04-01T08:48:49.427Z,14.77
2019-04-01T08:50:53.753Z,14.71
2019-04-01T08:52:58.516Z,14.44
2019-04-01T08:55:02.423Z,14.39
2019-04-01T08:57:07.398Z,14.25
2019-04-01T08:59:11.163Z,13.97
2019-04-01T09:01:15.262Z,13.93
2019-04-01T09:03:19.076Z,13.88
2019-04-01T09:05:22.889Z,13.90
2019-04-01T09:07:26.716Z,13.68
2019-04-01T09:09:31.948Z,13.44
2019-04-01T09:11:38.392Z,13.25
2019-04-01T09:13:41.942Z,13.01
2019-04-01T09:15:45.860Z,13.04
2019-04-01T09:17:49.765Z,12.89
2019-04-01T09:19:53.598Z,12.82
2019-04-01T09:21:57.426Z,12.68
2019-04-01T09:24:01.299Z,12.50
2019-04-01T09:26:05.347Z,12.30
2019-04-01T09:28:09.187Z,12.24
2019-04-01T09:30:18.532Z,12.09
2019-04-01T09:32:20.971Z,12.11
2019-04-01T09:34:24.726Z,11.95
2019-04-01T09:36:28.441Z,11.69
2019-04-01T09:38:32.250Z,11.43
2019-04-01T09:40:36.121Z,11.31
2019-04-01T09:42:39.941Z,11.26
2019-04-01T09:44:43.739Z,11.14
2019-04-01T09:46:49.074Z,11.03
2019-04-01T09:48:52.992Z,10.80
2019-04-01T09:50:56.742Z,10.64
2019-04-01T09:53:00.502Z,10.63
2019-04-01T09:55:06.272Z,10.62
2019-04-01T09:57:17.392Z,10.46
2019-04-01T09:59:15.670Z,10.21
2019-04-01T10:01:19.394Z,10.38
2019-04-01T10:03:23.184Z,10.40
2019-04-01T10:05:26.932Z,10.29
2019-04-01T10:07:30.791Z,10.04
2019-04-01T10:09:34.581Z,9.88
2019-04-01T10:11:38.303Z,9.76
2019-04-01T10:13:42.019Z,9.92
2019-04-01T10:15:45.757Z,9.92
2019-04-01T10:17:49.476Z,9.99
2019-04-01T10:19:53.218Z,9.80
2019-04-01T10:21:56.950Z,9.61
2019-04-01T10:24:00.755Z,9.71
2019-04-01T10:26:04.629Z,9.69
2019-04-01T10:28:08.362Z,9.48
2019-04-01T10:30:13.057Z,9.35
2019-04-01T10:32:16.779Z,9.25
2019-04-01T10:34:20.521Z,9.11
2019-04-01T10:36:24.258Z,9.08
2019-04-01T10:38:27.993Z,8.85
2019-04-01T10:40:31.847Z,8.86
2019-04-01T10:42:35.700Z,8.71
2019-04-01T10:44:39.442Z,8.67
2019-04-01T10:46:43.193Z,8.41
2019-04-01T10:48:46.892Z,8.37
2019-04-01T10:50:50.648Z,8.20
2019-04-01T10:52:54.424Z,8.19
2019-04-01T10:54:58.121Z,8.31
2019-04-01T10:57:02.205Z,8.43
2019-04-01T10:59:06.012Z,8.41
2019-04-01T11:01:09.886Z,8.45
2019-04-01T11:03:13.710Z,8.58
2019-04-01T11:05:17.488Z,8.29
2019-04-01T11:07:21.246Z,8.08
2019-04-01T11:09:37.768Z,7.78
2019-04-01T11:11:30.506Z,7.58
2019-04-01T11:13:34.357Z,7.67
2019-04-01T11:15:38.066Z,7.82
2019-04-01T11:17:41.826Z,7.67
2019-04-01T11:19:45.649Z,7.66
2019-04-01T11:21:49.363Z,7.58
2019-04-01T11:23:53.161Z,7.45
2019-04-01T11:25:56.901Z,7.33
2019-04-01T11:28:00.653Z,7.24
2019-04-01T11:30:05.309Z,7.23
2019-04-01T11:32:09.512Z,7.36
2019-04-01T11:34:14.697Z,7.50
2019-04-01T11:36:18.520Z,7.45
2019-04-01T11:38:22.335Z,7.47
2019-04-01T11:40:26.176Z,7.42
2019-04-01T11:42:29.853Z,7.31
2019-04-01T11:44:33.641Z,7.41
2019-04-01T11:46:37.320Z,7.37
2019-04-01T11:48:41.205Z,7.46
2019-04-01T11:50:47.723Z,7.50
2019-04-01T11:52:50.444Z,7.60
2019-04-01T11:54:54.245Z,7.59
2019-04-01T11:56:57.981Z,7.56
2019-04-01T11:59:01.724Z,7.56
2019-04-01T12:01:05.515Z,7.72
2019-04-01T12:03:09.403Z,7.76
2019-04-01T12:05:13.476Z,7.74
2019-04-01T12:07:17.206Z,7.55
2019-04-01T12:09:21.082Z,7.51
2019-04-01T12:11:24.822Z,7.58
2019-04-01T12:13:29.021Z,7.64
2019-04-01T12:15:33.103Z,7.69
2019-04-01T12:17:36.920Z,7.67
2019-04-01T12:19:40.688Z,7.57
2019-04-01T12:21:44.508Z,7.54
2019-04-01T12:23:48.240Z,7.49
2019-04-01T12:25:51.994Z,7.60
2019-04-01T12:27:55.746Z,7.55
2019-04-01T12:29:59.496Z,7.57
2019-04-01T12:32:03.314Z,7.52
2019-04-01T12:34:07.043Z,7.54
2019-04-01T12:36:11.824Z,7.54
2019-04-01T12:38:16.492Z,7.65
2019-04-01T12:40:20.381Z,7.70
2019-04-01T12:42:24.183Z,7.78
2019-04-01T12:44:27.908Z,7.83
2019-04-01T12:46:31.644Z,7.80
2019-04-01T12:48:35.371Z,8.06
2019-04-01T12:50:40.145Z,8.13
2019-04-01T12:52:43.865Z,8.02
2019-04-01T12:54:47.595Z,7.96
2019-04-01T12:56:51.359Z,8.07
2019-04-01T12:58:55.097Z,8.14
2019-04-01T13:01:01.062Z,8.08
2019-04-01T13:03:04.408Z,8.10
2019-04-01T13:05:08.379Z,8.11
2019-04-01T13:07:12.121Z,8.08
2019-04-01T13:09:15.906Z,8.10
2019-04-01T13:11:19.852Z,8.11
2019-04-01T13:13:23.518Z,8.22
2019-04-01T13:15:27.323Z,8.42
2019-04-01T13:17:31.116Z,8.59
2019-04-01T13:19:34.829Z,8.67
2019-04-01T13:21:39.924Z,8.61
2019-04-01T13:23:43.760Z,8.56
2019-04-01T13:25:47.486Z,8.63
2019-04-01T13:27:51.319Z,8.80
2019-04-01T13:29:55.057Z,9.02
2019-04-01T13:32:00.564Z,9.15
2019-04-01T13:34:04.370Z,9.11
2019-04-01T13:36:08.136Z,9.01
2019-04-01T13:38:11.907Z,8.82
2019-04-01T13:40:19.303Z,8.92
2019-04-01T13:42:24.698Z,9.29
2019-04-01T13:44:36.837Z,9.59
2019-04-01T13:46:32.130Z,9.59
2019-04-01T13:48:35.857Z,9.64
2019-04-01T13:50:39.572Z,9.71
2019-04-01T13:52:43.320Z,9.70
2019-04-01T13:54:47.057Z,9.70
2019-04-01T13:56:50.803Z,9.72
2019-04-01T13:58:54.633Z,10.04
2019-04-01T14:00:58.344Z,10.71
2019-04-01T14:03:02.075Z,11.43
2019-04-01T14:05:06.784Z,11.92
2019-04-01T14:07:10.533Z,12.05
2019-04-01T14:09:14.323Z,12.29
2019-04-01T14:11:18.062Z,12.61
2019-04-01T14:13:21.787Z,13.13
2019-04-01T14:15:25.530Z,13.46
2019-04-01T14:17:29.279Z,13.80
2019-04-01T14:19:33.015Z,13.88
2019-04-01T14:21:36.757Z,14.18
2019-04-01T14:23:40.481Z,14.58
2019-04-01T14:25:44.199Z,14.97
2019-04-01T14:27:48.006Z,15.19
2019-04-01T14:29:51.750Z,15.56
2019-04-01T14:31:55.506Z,16.12
2019-04-01T14:33:59.556Z,16.50
2019-04-01T14:36:04.674Z,16.70
2019-04-01T14:38:08.628Z,17.02
2019-04-01T14:40:12.518Z,17.16
2019-04-01T14:42:16.258Z,17.31
2019-04-01T14:44:19.987Z,17.37
2019-04-01T14:46:23.722Z,17.34
2019-04-01T14:48:27.536Z,17.11
2019-04-01T14:50:31.271Z,17.21
2019-04-01T14:52:35.145Z,17.63
2019-04-01T14:54:38.806Z,17.97
2019-04-01T14:56:42.623Z,18.14
2019-04-01T14:58:46.353Z,18.27
2019-04-01T15:00:50.159Z,18.24
2019-04-01T15:02:53.983Z,18.30
2019-04-01T15:04:57.792Z,18.27
2019-04-01T15:07:01.535Z,18.39
2019-04-01T15:09:08.371Z,18.68
2019-04-01T15:11:12.692Z,19.09
2019-04-01T15:13:16.535Z,19.36
2019-04-01T15:15:20.407Z,19.57
2019-04-01T15:17:24.140Z,19.80
2019-04-01T15:19:27.927Z,20.11
2019-04-01T15:21:31.668Z,20.32
2019-04-01T15:23:35.467Z,21.23
2019-04-01T15:25:39.226Z,21.22
2019-04-01T15:27:42.985Z,21.48
2019-04-01T15:29:46.736Z,21.88
2019-04-01T15:31:50.464Z,21.81
2019-04-01T15:33:54.196Z,22.12
2019-04-01T15:35:57.961Z,22.87
2019-04-01T15:38:01.703Z,22.90
2019-04-01T15:40:07.326Z,22.66
2019-04-01T15:42:11.035Z,22.67
2019-04-01T15:44:14.910Z,22.75
2019-04-01T15:46:18.635Z,22.81
2019-04-01T15:48:22.431Z,22.96
2019-04-01T15:50:28.669Z,22.85
2019-04-01T15:52:31.699Z,23.45
2019-04-01T15:54:35.426Z,23.45
2019-04-01T15:56:41.849Z,23.36
2019-04-01T15:58:44.699Z,23.33
2019-04-01T16:00:48.514Z,23.74
2019-04-01T16:02:52.332Z,23.90
2019-04-01T16:04:56.064Z,24.16
2019-04-01T16:07:00.364Z,24.31
2019-04-01T16:09:06.341Z,24.55
2019-04-01T16:11:10.091Z,24.90
2019-04-01T16:13:14.320Z,25.01
2019-04-01T16:15:18.335Z,25.00
2019-04-01T16:17:22.173Z,24.98
2019-04-01T16:19:25.977Z,24.95
2019-04-01T16:21:31.412Z,25.05
2019-04-01T16:23:35.280Z,25.16
2019-04-01T16:25:39.067Z,25.21
2019-04-01T16:27:43.229Z,25.36
2019-04-01T16:29:47.009Z,25.49
2019-04-01T16:31:50.735Z,25.58
2019-04-01T16:33:54.477Z,25.73
2019-04-01T16:35:58.320Z,25.87
2019-04-01T16:38:02.062Z,26.05
2019-04-01T16:40:06.556Z,26.35
2019-04-01T16:42:10.301Z,26.40
2019-04-01T16:44:15.010Z,26.58
2019-04-01T16:46:18.866Z,26.80
2019-04-01T16:48:22.613Z,26.99
2019-04-01T16:50:28.574Z,27.09
2019-04-01T16:52:31.985Z,27.07
2019-04-01T16:54:37.547Z,27.21
2019-04-01T16:56:41.432Z,27.36
2019-04-01T16:58:45.244Z,27.61
2019-04-01T17:00:48.996Z,27.68
2019-04-01T17:02:52.739Z,27.98
2019-04-01T17:04:56.596Z,28.10
2019-04-01T17:07:00.412Z,28.26
2019-04-01T17:09:06.050Z,28.44
2019-04-01T17:11:09.913Z,28.58
2019-04-01T17:13:13.767Z,28.93
2019-04-01T17:15:17.577Z,29.13
2019-04-01T17:17:21.399Z,29.40
2019-04-01T17:19:27.687Z,29.59
2019-04-01T17:21:30.605Z,29.65
2019-04-01T17:23:34.418Z,29.89
2019-04-01T17:25:38.154Z,30.05
2019-04-01T17:27:42.033Z,30.21
2019-04-01T17:29:47.199Z,30.59
2019-04-01T17:31:50.933Z,30.86
2019-04-01T17:33:54.721Z,30.85
2019-04-01T17:35:58.452Z,30.91
2019-04-01T17:38:02.200Z,31.09
2019-04-01T17:40:08.470Z,31.10
2019-04-01T17:42:12.286Z,31.08
2019-04-01T17:44:16.099Z,31.14
2019-04-01T17:46:19.909Z,31.27
2019-04-01T17:48:23.738Z,31.35
2019-04-01T17:50:28.947Z,31.43
2019-04-01T17:52:32.833Z,31.45
2019-04-01T17:54:39.889Z,31.64
2019-04-01T17:56:42.012Z,31.65
2019-04-01T17:58:45.813Z,31.83
2019-04-01T18:00:56.118Z,31.81
2019-04-01T18:02:59.837Z,31.99
2019-04-01T18:05:03.646Z,32.01
2019-04-01T18:07:07.775Z,32.21
2019-04-01T18:09:11.611Z,32.39
2019-04-01T18:11:17.349Z,32.47
2019-04-01T18:13:22.072Z,32.79
2019-04-01T18:15:25.945Z,32.88
2019-04-01T18:17:29.668Z,33.05
2019-04-01T18:19:33.397Z,33.15
2019-04-01T18:21:38.253Z,33.25
2019-04-01T18:23:42.113Z,33.44
2019-04-01T18:25:45.924Z,33.52
2019-04-01T18:27:49.660Z,33.62
2019-04-01T18:29:53.403Z,33.70
2019-04-01T18:31:58.986Z,33.95
2019-04-01T18:34:02.587Z,34.33
2019-04-01T18:36:06.423Z,34.42
2019-04-01T18:38:10.231Z,34.41
2019-04-01T18:40:14.214Z,34.61
2019-04-01T18:42:17.974Z,34.83
2019-04-01T18:44:21.799Z,34.96
2019-04-01T18:46:25.527Z,35.13
2019-04-01T18:48:29.272Z,35.21
2019-04-01T18:50:33.020Z,35.43
2019-04-01T18:52:38.120Z,35.60
2019-04-01T18:54:42.233Z,35.76
2019-04-01T18:56:47.671Z,35.91
2019-04-01T18:58:51.415Z,35.95
2019-04-01T19:00:55.148Z,36.05
2019-04-01T19:02:58.960Z,36.28
2019-04-01T19:05:02.768Z,36.39
2019-04-01T19:07:06.567Z,36.22
2019-04-01T19:09:11.745Z,36.16
2019-04-01T19:11:16.007Z,36.17
2019-04-01T19:13:19.857Z,36.11
2019-04-01T19:15:24.536Z,36.17
2019-04-01T19:17:28.923Z,36.28
2019-04-01T19:19:32.656Z,36.36
2019-04-01T19:21:37.163Z,36.34
2019-04-01T19:23:41.171Z,36.45
2019-04-01T19:25:44.899Z,36.50
2019-04-01T19:27:49.221Z,36.59
2019-04-01T19:29:53.754Z,36.79
2019-04-01T19:31:57.499Z,37.00
2019-04-01T19:34:01.230Z,37.26
2019-04-01T19:36:05.115Z,37.55
2019-04-01T19:38:08.928Z,37.74
2019-04-01T19:40:13.299Z,37.86
2019-04-01T19:42:17.929Z,38.04
2019-04-01T19:44:21.941Z,38.19
2019-04-01T19:46:25.688Z,38.34
2019-04-01T19:48:29.489Z,38.49
2019-04-01T19:50:33.465Z,38.60
2019-04-01T19:52:37.296Z,38.72
2019-04-01T19:54:41.099Z,38.86
2019-04-01T19:56:44.817Z,38.98
2019-04-01T19:58:48.544Z,39.06
2019-04-01T20:00:52.363Z,39.13
2019-04-01T20:02:56.575Z,39.33
2019-04-01T20:05:00.496Z,39.43
2019-04-01T20:07:04.380Z,39.53
2019-04-01T20:09:08.790Z,39.60
2019-04-01T20:11:12.532Z,39.72
2019-04-01T20:13:16.249Z,39.88
2019-04-01T20:15:20.547Z,39.98
2019-04-01T20:17:24.363Z,39.99
2019-04-01T20:19:28.099Z,40.05
2019-04-01T20:21:31.821Z,40.09
2019-04-01T20:23:35.580Z,40.16
2019-04-01T20:25:39.347Z,40.18
2019-04-01T20:27:44.147Z,40.22
2019-04-01T20:29:47.980Z,40.31
2019-04-01T20:31:51.871Z,40.41
2019-04-01T20:33:55.590Z,40.55
2019-04-01T20:35:59.360Z,40.68
2019-04-01T20:38:03.116Z,40.77
2019-04-01T20:40:08.825Z,40.81
2019-04-01T20:42:12.628Z,40.91
2019-04-01T20:44:16.363Z,41.04
2019-04-01T20:46:20.129Z,41.10
2019-04-01T20:48:23.879Z,41.19
2019-04-01T20:50:28.181Z,41.21
2019-04-01T20:52:32.166Z,41.23
2019-04-01T20:54:35.897Z,41.32
2019-04-01T20:56:39.793Z,41.50
2019-04-01T20:58:43.530Z,41.62
2019-04-01T21:00:47.334Z,41.81
2019-04-01T21:02:51.080Z,41.95
2019-04-01T21:04:55.136Z,41.95
2019-04-01T21:06:59.673Z,42.01
2019-04-01T21:09:06.589Z,41.89
2019-04-01T21:11:11.165Z,41.80
2019-04-01T21:13:16.039Z,41.81
2019-04-01T21:15:19.843Z,42.02
2019-04-01T21:17:23.991Z,42.27
2019-04-01T21:19:28.094Z,42.46
2019-04-01T21:21:31.829Z,42.66
2019-04-01T21:23:36.085Z,42.63
2019-04-01T21:25:40.082Z,42.57
2019-04-01T21:27:43.816Z,42.58
2019-04-01T21:29:47.560Z,42.51
2019-04-01T21:31:51.293Z,42.35
2019-04-01T21:33:55.024Z,42.13
2019-04-01T21:35:58.839Z,41.89
2019-04-01T21:38:03.164Z,41.87
2019-04-01T21:40:08.195Z,41.91
2019-04-01T21:42:11.940Z,41.87
2019-04-01T21:44:15.686Z,41.82
2019-04-01T21:46:19.554Z,41.81
2019-04-01T21:48:23.302Z,41.80
2019-04-01T21:50:29.549Z,41.84
2019-04-01T21:52:33.168Z,41.74
2019-04-01T21:54:37.692Z,41.65
2019-04-01T21:56:41.430Z,41.54
2019-04-01T21:58:45.162Z,41.45
2019-04-01T22:00:52.013Z,41.35
2019-04-01T22:02:55.750Z,41.35
2019-04-01T22:04:59.481Z,41.34
2019-04-01T22:07:03.294Z,41.37
2019-04-01T22:09:09.754Z,41.19
2019-04-01T22:11:13.490Z,41.27
2019-04-01T22:13:17.235Z,41.32
2019-04-01T22:15:22.207Z,41.37
2019-04-01T22:17:26.134Z,41.42
2019-04-01T22:19:29.889Z,41.53
2019-04-01T22:21:34.702Z,41.58
2019-04-01T22:23:38.429Z,41.64
2019-04-01T22:25:42.160Z,41.68
2019-04-01T22:27:45.894Z,41.76
2019-04-01T22:29:49.693Z,41.96
2019-04-01T22:31:53.408Z,42.03
2019-04-01T22:33:57.144Z,42.07
2019-04-01T22:36:00.933Z,41.99
2019-04-01T22:38:06.211Z,41.97
2019-04-01T22:40:10.399Z,41.99
2019-04-01T22:42:14.172Z,41.97
2019-04-01T22:44:17.911Z,42.06
2019-04-01T22:46:21.619Z,42.17
2019-04-01T22:48:25.350Z,42.23
2019-04-01T22:50:29.158Z,42.32
2019-04-01T22:52:32.865Z,42.70
2019-04-01T22:54:36.589Z,42.90
2019-04-01T22:56:40.318Z,43.14
2019-04-01T22:58:44.024Z,43.44
2019-04-01T23:00:47.771Z,43.72
2019-04-01T23:02:51.502Z,44.02
2019-04-01T23:04:55.221Z,44.40
2019-04-01T23:06:58.937Z,44.56
2019-04-01T23:09:03.054Z,44.74
2019-04-01T23:11:06.763Z,45.06
2019-04-01T23:13:10.505Z,45.16
2019-04-01T23:15:15.317Z,45.39
2019-04-01T23:17:19.515Z,45.65
2019-04-01T23:19:23.329Z,45.94
2019-04-01T23:21:27.056Z,46.28
2019-04-01T23:23:30.783Z,46.44
2019-04-01T23:25:34.522Z,46.62
2019-04-01T23:27:38.258Z,46.88
2019-04-01T23:29:41.986Z,47.38
2019-04-01T23:31:46.253Z,47.71
2019-04-01T23:33:50.857Z,47.85
2019-04-01T23:35:54.592Z,48.03
2019-04-01T23:37:58.313Z,48.45
2019-04-01T23:40:02.383Z,48.53
2019-04-01T23:42:07.049Z,48.65
2019-04-01T23:44:10.767Z,48.83
2019-04-01T23:46:14.506Z,49.26
2019-04-01T23:48:18.242Z,49.75
2019-04-01T23:50:21.976Z,50.07
2019-04-01T23:52:25.713Z,50.21
2019-04-01T23:54:31.031Z,50.47
2019-04-01T23:56:34.876Z,50.80
2019-04-01T23:58:38.605Z,51.12
